»·PEaware :: CFC412 KSEA-KEUG

CFC412 :: KSEA-KEUG

FLIGHT INFORMATION

Flight Status: Arrived
Operator:
Canadian Armed Forces
More flights by this operator :: More flights under this callsign
Pilot: Anonymous 24180 (24180)
Aircraft: AIRBUS A320
(A320)
More flights by this aircraft type
Origin: KSEA Seattle-Tacoma Intl
United States
Destination: KEUG Mahlon Sweet
United States
More flights between these airports :: More routes between these airports
Route: +HAROB6 FEPOT CVO
File this flight plan on PilotEdge
Remarks: RMK / SIMBRIEF
Altitude:
(Current/Filed)
29,000ft
Speed:
(Current/Filed)
478kts
Departed: 03-Nov-20 11:29 AM
Arrived: 03-Nov-20 12:11 PM
Distance/Time
Traveled:
203nm/0:42
Distance/Time
To Go:
Arrived

Flight Plot

Page will automatically refresh every two minutes.

Flight plan parsing failed; only flown route is shown


Map Options




Map Legend


Flown Route
Filed Route
Departure Airport
Arrival Airport
Navaid (VOR, NDB)
Fix

Horizontal Profiles

Position Reports

Time Latitude Longitude Heading Altitude Ground
Speed
03-Nov-20 11:05 47.440614 -122.303392 345 442ft 0kts
03-Nov-20 11:06 47.440614 -122.303392 345 442ft 0kts
03-Nov-20 11:07 47.440614 -122.303392 345 442ft 0kts
03-Nov-20 11:08 47.440614 -122.303392 345 442ft 0kts
03-Nov-20 11:09 47.440614 -122.303392 345 442ft 0kts
03-Nov-20 11:10 47.440614 -122.303392 345 442ft 0kts
03-Nov-20 11:11 47.440614 -122.303392 345 442ft 0kts
03-Nov-20 11:12 47.440614 -122.303392 345 442ft 0kts
03-Nov-20 11:13 47.440614 -122.303392 345 442ft 0kts
03-Nov-20 11:14 47.440614 -122.303392 345 442ft 0kts
03-Nov-20 11:15 47.440614 -122.303392 345 442ft 0kts
03-Nov-20 11:16 47.440489 -122.303348 347 442ft 2kts
03-Nov-20 11:17 47.440116 -122.302855 238 442ft 2kts
03-Nov-20 11:18 47.440258 -122.302577 235 442ft 0kts
03-Nov-20 11:19 47.440258 -122.302577 235 442ft 0kts
03-Nov-20 11:20 47.440258 -122.302577 235 442ft 0kts
03-Nov-20 11:21 47.440009 -122.303339 253 442ft 4kts
03-Nov-20 11:22 47.439913 -122.304899 271 442ft 2kts
03-Nov-20 11:23 47.442117 -122.306354 0 442ft 15kts
03-Nov-20 11:24 47.446931 -122.306282 0 442ft 19kts
03-Nov-20 11:25 47.453091 -122.306239 1 442ft 24kts
03-Nov-20 11:26 47.460463 -122.306261 355 442ft 28kts
03-Nov-20 11:27 47.463598 -122.306380 314 442ft 5kts
03-Nov-20 11:28 47.457072 -122.307824 179 442ft 118kts
03-Nov-20 11:29 47.406661 -122.308721 177 2842ft 217kts
03-Nov-20 11:30 47.339341 -122.314383 199 6198ft 257kts
03-Nov-20 11:31 47.336316 -122.316376 203 6384ft 258kts
03-Nov-20 11:34 47.305101 -122.811091 246 14967ft 366kts
03-Nov-20 11:35 47.267181 -122.952001 246 15007ft 370kts
03-Nov-20 11:36 47.209739 -123.078225 218 16146ft 382kts
03-Nov-20 11:37 47.122124 -123.173802 218 17764ft 391kts
03-Nov-20 11:38 47.017014 -123.221260 185 19202ft 413kts
03-Nov-20 11:40 46.899895 -123.224405 186 20304ft 426kts
03-Nov-20 11:41 46.779182 -123.227990 186 21437ft 436kts
03-Nov-20 11:42 46.656443 -123.231649 186 22535ft 444kts
03-Nov-20 11:43 46.531569 -123.235341 186 23033ft 445kts
03-Nov-20 11:44 46.406556 -123.239045 186 23034ft 447kts
03-Nov-20 11:45 46.281702 -123.242723 186 23063ft 446kts
03-Nov-20 11:46 46.156500 -123.246403 186 23073ft 446kts
03-Nov-20 11:47 46.032055 -123.250047 186 23075ft 446kts
03-Nov-20 11:48 45.907165 -123.253683 186 23081ft 445kts
03-Nov-20 11:49 45.786752 -123.257176 186 23087ft 445kts
03-Nov-20 11:50 45.662071 -123.260778 186 23089ft 445kts
03-Nov-20 11:51 45.537500 -123.264361 186 23090ft 445kts
03-Nov-20 11:52 45.414290 -123.267826 186 20891ft 433kts
03-Nov-20 11:53 45.295817 -123.271164 186 18200ft 415kts
03-Nov-20 11:54 45.182406 -123.274934 186 15584ft 396kts
03-Nov-20 11:55 45.075024 -123.278453 186 13189ft 378kts
03-Nov-20 11:56 44.968857 -123.283990 186 12830ft 376kts
03-Nov-20 11:56 44.883644 -123.289698 186 10330ft 364kts
03-Nov-20 11:58 44.779758 -123.294194 186 8999ft 284kts
03-Nov-20 11:58 44.717853 -123.295682 186 8943ft 245kts
03-Nov-20 12:00 44.640316 -123.293523 175 7867ft 238kts
03-Nov-20 12:00 44.585431 -123.281250 176 6974ft 237kts
03-Nov-20 12:02 44.508511 -123.266867 176 6008ft 237kts
03-Nov-20 12:02 44.456460 -123.257418 176 5963ft 211kts
03-Nov-20 12:03 44.401266 -123.246468 176 5429ft 176kts
03-Nov-20 12:04 44.353273 -123.236515 176 4287ft 171kts
03-Nov-20 12:05 44.306524 -123.227615 176 3176ft 165kts
03-Nov-20 12:06 44.262646 -123.221259 181 2851ft 146kts
03-Nov-20 12:07 44.222536 -123.220447 181 2063ft 140kts
03-Nov-20 12:08 44.184733 -123.219894 180 1350ft 133kts
03-Nov-20 12:09 44.147540 -123.219355 180 640ft 132kts
03-Nov-20 12:10 44.123070 -123.218993 188 374ft 26kts
03-Nov-20 12:11 44.120907 -123.217003 99 376ft 0kts
03-Nov-20 12:12 44.119609 -123.216712 135 376ft 7kts
03-Nov-20 12:13 44.119856 -123.214606 101 376ft 0kts

Navigation Log

Ident Type
Flight plan parsing failed, navigation log unavailable